sensor_id;sensor_type;location;lat;lon;timestamp;pressure;altitude;pressure_sealevel;temperature;humidity
84712;BME280;74937;44.534;18.684;2024-02-16T00:00:25;99577.38;;;4.28;65.49
84712;BME280;74937;44.534;18.684;2024-02-16T00:02:51;99577.56;;;4.23;65.25
84712;BME280;74937;44.534;18.684;2024-02-16T00:05:18;99574.84;;;4.26;65.33
84712;BME280;74937;44.534;18.684;2024-02-16T00:07:44;99572.56;;;4.19;65.75
84712;BME280;74937;44.534;18.684;2024-02-16T00:10:10;99573.25;;;4.22;65.44
84712;BME280;74937;44.534;18.684;2024-02-16T00:12:38;99572.97;;;4.08;66.04
84712;BME280;74937;44.534;18.684;2024-02-16T00:15:06;99571.34;;;4.05;66.04
84712;BME280;74937;44.534;18.684;2024-02-16T00:17:32;99576.97;;;3.95;66.10
84712;BME280;74937;44.534;18.684;2024-02-16T00:19:58;99577.75;;;3.97;66.49
84712;BME280;74937;44.534;18.684;2024-02-16T00:22:24;99567.56;;;3.91;66.48
84712;BME280;74937;44.534;18.684;2024-02-16T00:24:50;99572.84;;;3.89;66.20
84712;BME280;74937;44.534;18.684;2024-02-16T00:27:15;99565.38;;;4.02;65.93
84712;BME280;74937;44.534;18.684;2024-02-16T00:29:42;99571.06;;;3.90;66.37
84712;BME280;74937;44.534;18.684;2024-02-16T00:32:08;99571.38;;;3.82;66.40
84712;BME280;74937;44.534;18.684;2024-02-16T00:34:35;99564.22;;;3.87;66.04
84712;BME280;74937;44.534;18.684;2024-02-16T00:37:01;99565.09;;;3.88;65.89
84712;BME280;74937;44.534;18.684;2024-02-16T00:39:29;99563.16;;;3.93;66.08
84712;BME280;74937;44.534;18.684;2024-02-16T00:41:55;99564.22;;;3.87;66.12
84712;BME280;74937;44.534;18.684;2024-02-16T00:44:20;99558.66;;;3.74;66.40
84712;BME280;74937;44.534;18.684;2024-02-16T00:46:46;99554.22;;;3.76;66.60
84712;BME280;74937;44.534;18.684;2024-02-16T00:49:12;99548.31;;;3.71;66.94
84712;BME280;74937;44.534;18.684;2024-02-16T00:51:38;99550.44;;;3.62;66.48
84712;BME280;74937;44.534;18.684;2024-02-16T00:54:04;99553.97;;;3.61;66.85
84712;BME280;74937;44.534;18.684;2024-02-16T00:56:33;99545.22;;;3.62;67.10
84712;BME280;74937;44.534;18.684;2024-02-16T00:58:58;99546.16;;;3.61;67.02
84712;BME280;74937;44.534;18.684;2024-02-16T01:01:24;99543.59;;;3.59;66.99
84712;BME280;74937;44.534;18.684;2024-02-16T01:03:54;99536.56;;;3.61;67.39
84712;BME280;74937;44.534;18.684;2024-02-16T01:06:20;99541.78;;;3.61;67.20
84712;BME280;74937;44.534;18.684;2024-02-16T01:08:46;99540.50;;;3.71;67.07
84712;BME280;74937;44.534;18.684;2024-02-16T01:11:12;99538.63;;;3.75;66.60
84712;BME280;74937;44.534;18.684;2024-02-16T01:13:39;99525.44;;;3.79;66.17
84712;BME280;74937;44.534;18.684;2024-02-16T01:16:06;99522.75;;;3.59;67.22
84712;BME280;74937;44.534;18.684;2024-02-16T01:18:32;99536.56;;;3.61;66.92
84712;BME280;74937;44.534;18.684;2024-02-16T01:20:58;99528.31;;;3.50;67.34
84712;BME280;74937;44.534;18.684;2024-02-16T01:23:24;99523.94;;;3.50;67.06
84712;BME280;74937;44.534;18.684;2024-02-16T01:25:50;99527.97;;;3.59;66.55
84712;BME280;74937;44.534;18.684;2024-02-16T01:28:16;99536.25;;;3.47;67.36
84712;BME280;74937;44.534;18.684;2024-02-16T01:30:42;99528.53;;;3.44;67.56
84712;BME280;74937;44.534;18.684;2024-02-16T01:33:07;99518.63;;;3.53;67.17
84712;BME280;74937;44.534;18.684;2024-02-16T01:35:34;99527.38;;;3.51;67.18
84712;BME280;74937;44.534;18.684;2024-02-16T01:38:00;99523.38;;;3.42;67.47
84712;BME280;74937;44.534;18.684;2024-02-16T01:40:26;99516.66;;;3.37;67.42
84712;BME280;74937;44.534;18.684;2024-02-16T01:42:53;99511.44;;;3.37;67.50
84712;BME280;74937;44.534;18.684;2024-02-16T01:45:19;99520.09;;;3.37;67.30
84712;BME280;74937;44.534;18.684;2024-02-16T01:47:47;99514.09;;;3.35;67.43
84712;BME280;74937;44.534;18.684;2024-02-16T01:50:15;99516.53;;;3.40;67.71
84712;BME280;74937;44.534;18.684;2024-02-16T01:52:45;99509.91;;;3.31;67.30
84712;BME280;74937;44.534;18.684;2024-02-16T01:55:12;99505.50;;;3.33;67.66
84712;BME280;74937;44.534;18.684;2024-02-16T01:57:48;99508.75;;;3.38;67.22
84712;BME280;74937;44.534;18.684;2024-02-16T02:00:15;99510.88;;;3.29;67.57
84712;BME280;74937;44.534;18.684;2024-02-16T02:02:40;99508.13;;;3.33;67.79
84712;BME280;74937;44.534;18.684;2024-02-16T02:05:06;99510.66;;;3.35;67.77
84712;BME280;74937;44.534;18.684;2024-02-16T02:07:32;99505.78;;;3.25;67.79
84712;BME280;74937;44.534;18.684;2024-02-16T02:09:58;99503.91;;;3.29;68.32
84712;BME280;74937;44.534;18.684;2024-02-16T02:12:24;99500.00;;;3.17;68.48
84712;BME280;74937;44.534;18.684;2024-02-16T02:14:50;99507.03;;;3.15;68.88
84712;BME280;74937;44.534;18.684;2024-02-16T02:17:17;99499.72;;;3.25;68.02
84712;BME280;74937;44.534;18.684;2024-02-16T02:19:45;99500.22;;;3.35;67.57
84712;BME280;74937;44.534;18.684;2024-02-16T02:22:20;99494.25;;;3.33;67.39
84712;BME280;74937;44.534;18.684;2024-02-16T02:24:47;99496.84;;;3.33;67.18
84712;BME280;74937;44.534;18.684;2024-02-16T02:27:16;99493.97;;;3.39;67.00
84712;BME280;74937;44.534;18.684;2024-02-16T02:29:42;99487.13;;;3.36;66.76
84712;BME280;74937;44.534;18.684;2024-02-16T02:32:08;99487.28;;;3.33;66.88
84712;BME280;74937;44.534;18.684;2024-02-16T02:34:34;99482.00;;;3.35;66.86
84712;BME280;74937;44.534;18.684;2024-02-16T02:37:02;99481.38;;;3.28;66.87
84712;BME280;74937;44.534;18.684;2024-02-16T02:39:30;99476.78;;;3.35;66.41
84712;BME280;74937;44.534;18.684;2024-02-16T02:41:56;99476.09;;;3.30;67.01
84712;BME280;74937;44.534;18.684;2024-02-16T02:44:26;99472.59;;;3.31;66.59
84712;BME280;74937;44.534;18.684;2024-02-16T02:46:52;99477.13;;;3.25;66.72
84712;BME280;74937;44.534;18.684;2024-02-16T02:49:18;99475.44;;;3.24;66.99
84712;BME280;74937;44.534;18.684;2024-02-16T02:51:44;99473.19;;;3.15;67.12
84712;BME280;74937;44.534;18.684;2024-02-16T02:54:10;99467.41;;;3.07;67.44
84712;BME280;74937;44.534;18.684;2024-02-16T02:56:36;99465.59;;;3.09;66.96
84712;BME280;74937;44.534;18.684;2024-02-16T02:59:01;99469.44;;;2.99;67.71
84712;BME280;74937;44.534;18.684;2024-02-16T03:01:27;99469.41;;;3.01;67.42
84712;BME280;74937;44.534;18.684;2024-02-16T03:03:53;99470.88;;;3.08;67.23
84712;BME280;74937;44.534;18.684;2024-02-16T03:06:19;99467.41;;;3.07;67.39
84712;BME280;74937;44.534;18.684;2024-02-16T03:08:45;99465.25;;;2.95;67.92
84712;BME280;74937;44.534;18.684;2024-02-16T03:11:11;99472.94;;;2.98;67.13
84712;BME280;74937;44.534;18.684;2024-02-16T03:13:37;99471.94;;;3.02;67.43
84712;BME280;74937;44.534;18.684;2024-02-16T03:16:03;99469.44;;;2.99;67.50
84712;BME280;74937;44.534;18.684;2024-02-16T03:18:30;99472.78;;;3.03;67.53
84712;BME280;74937;44.534;18.684;2024-02-16T03:20:56;99472.63;;;3.07;67.39
84712;BME280;74937;44.534;18.684;2024-02-16T03:23:22;99475.69;;;2.95;67.69
84712;BME280;74937;44.534;18.684;2024-02-16T03:25:48;99474.88;;;2.93;67.73
84712;BME280;74937;44.534;18.684;2024-02-16T03:28:13;99472.16;;;2.96;67.78
84712;BME280;74937;44.534;18.684;2024-02-16T03:30:40;99476.25;;;3.03;67.42
84712;BME280;74937;44.534;18.684;2024-02-16T03:33:05;99472.66;;;3.06;67.71
84712;BME280;74937;44.534;18.684;2024-02-16T03:35:31;99473.06;;;2.95;67.94
84712;BME280;74937;44.534;18.684;2024-02-16T03:37:57;99469.25;;;2.80;68.28
84712;BME280;74937;44.534;18.684;2024-02-16T03:40:24;99488.28;;;2.82;68.19
84712;BME280;74937;44.534;18.684;2024-02-16T03:42:50;99485.13;;;2.74;68.78
84712;BME280;74937;44.534;18.684;2024-02-16T03:45:16;99477.06;;;2.80;68.52
84712;BME280;74937;44.534;18.684;2024-02-16T03:47:42;99481.34;;;2.83;68.65
84712;BME280;74937;44.534;18.684;2024-02-16T03:50:08;99484.94;;;2.79;68.94
84712;BME280;74937;44.534;18.684;2024-02-16T03:52:34;99488.34;;;2.81;68.87
84712;BME280;74937;44.534;18.684;2024-02-16T03:54:59;99484.88;;;2.80;68.51
84712;BME280;74937;44.534;18.684;2024-02-16T03:57:25;99483.94;;;2.83;68.15
84712;BME280;74937;44.534;18.684;2024-02-16T03:59:51;99485.50;;;2.87;67.82
84712;BME280;74937;44.534;18.684;2024-02-16T04:02:17;99485.50;;;2.87;67.54
84712;BME280;74937;44.534;18.684;2024-02-16T04:04:44;99492.53;;;2.85;67.52
84712;BME280;74937;44.534;18.684;2024-02-16T04:07:10;99488.00;;;2.90;67.26
84712;BME280;74937;44.534;18.684;2024-02-16T04:09:36;99500.28;;;2.86;67.14
84712;BME280;74937;44.534;18.684;2024-02-16T04:12:02;99490.84;;;2.84;67.45
84712;BME280;74937;44.534;18.684;2024-02-16T04:14:29;99496.81;;;2.86;67.82
84712;BME280;74937;44.534;18.684;2024-02-16T04:16:55;99496.31;;;2.76;67.85
84712;BME280;74937;44.534;18.684;2024-02-16T04:19:25;99499.19;;;2.68;67.68
84712;BME280;74937;44.534;18.684;2024-02-16T04:21:50;99501.47;;;2.53;68.31
84712;BME280;74937;44.534;18.684;2024-02-16T04:24:53;99497.03;;;2.56;68.33
84712;BME280;74937;44.534;18.684;2024-02-16T04:27:19;99498.13;;;2.49;68.54
84712;BME280;74937;44.534;18.684;2024-02-16T04:29:44;99492.97;;;2.48;68.62
84712;BME280;74937;44.534;18.684;2024-02-16T04:32:10;99491.91;;;2.53;68.06
84712;BME280;74937;44.534;18.684;2024-02-16T04:34:35;99490.47;;;2.44;68.28
84712;BME280;74937;44.534;18.684;2024-02-16T04:37:01;99494.19;;;2.37;68.90
84712;BME280;74937;44.534;18.684;2024-02-16T04:39:27;99491.06;;;2.53;68.57
84712;BME280;74937;44.534;18.684;2024-02-16T04:41:55;99486.97;;;2.45;68.50
84712;BME280;74937;44.534;18.684;2024-02-16T04:44:20;99488.72;;;2.45;68.58
84712;BME280;74937;44.534;18.684;2024-02-16T04:46:46;99487.13;;;2.41;68.94
84712;BME280;74937;44.534;18.684;2024-02-16T04:49:11;99484.28;;;2.49;68.42
84712;BME280;74937;44.534;18.684;2024-02-16T04:51:38;99485.84;;;2.53;68.39
84712;BME280;74937;44.534;18.684;2024-02-16T04:54:04;99484.72;;;2.61;67.98
84712;BME280;74937;44.534;18.684;2024-02-16T04:56:30;99484.78;;;2.58;68.12
84712;BME280;74937;44.534;18.684;2024-02-16T04:58:56;99485.72;;;2.57;68.05
84712;BME280;74937;44.534;18.684;2024-02-16T05:01:21;99484.00;;;2.56;68.02
84712;BME280;74937;44.534;18.684;2024-02-16T05:03:47;99478.22;;;2.48;68.35
84712;BME280;74937;44.534;18.684;2024-02-16T05:06:13;99478.53;;;2.39;68.72
84712;BME280;74937;44.534;18.684;2024-02-16T05:08:38;99487.13;;;2.41;68.88
84712;BME280;74937;44.534;18.684;2024-02-16T05:11:04;99483.69;;;2.40;68.65
84712;BME280;74937;44.534;18.684;2024-02-16T05:13:29;99489.00;;;2.37;68.72
84712;BME280;74937;44.534;18.684;2024-02-16T05:15:55;99485.44;;;2.40;68.49
84712;BME280;74937;44.534;18.684;2024-02-16T05:18:23;99481.84;;;2.44;68.38
84712;BME280;74937;44.534;18.684;2024-02-16T05:20:50;99485.34;;;2.43;68.22
84712;BME280;74937;44.534;18.684;2024-02-16T05:23:16;99482.03;;;2.38;68.55
84712;BME280;74937;44.534;18.684;2024-02-16T05:25:41;99482.03;;;2.38;69.04
84712;BME280;74937;44.534;18.684;2024-02-16T05:28:07;99486.47;;;2.36;68.69
84712;BME280;74937;44.534;18.684;2024-02-16T05:30:33;99486.28;;;2.40;68.73
84712;BME280;74937;44.534;18.684;2024-02-16T05:32:58;99485.44;;;2.40;68.75
84712;BME280;74937;44.534;18.684;2024-02-16T05:35:24;99488.22;;;2.35;68.51
84712;BME280;74937;44.534;18.684;2024-02-16T05:37:54;99482.03;;;2.38;68.65
84712;BME280;74937;44.534;18.684;2024-02-16T05:40:20;99486.41;;;2.37;68.43
84712;BME280;74937;44.534;18.684;2024-02-16T05:42:54;99486.59;;;2.31;69.43
84712;BME280;74937;44.534;18.684;2024-02-16T05:45:24;99482.53;;;2.49;67.83
84712;BME280;74937;44.534;18.684;2024-02-16T05:47:50;99488.56;;;2.50;68.29
84712;BME280;74937;44.534;18.684;2024-02-16T05:50:16;99494.84;;;2.44;68.43
84712;BME280;74937;44.534;18.684;2024-02-16T05:52:43;99493.03;;;2.46;68.27
84712;BME280;74937;44.534;18.684;2024-02-16T05:55:10;99500.75;;;2.49;68.19
84712;BME280;74937;44.534;18.684;2024-02-16T05:57:37;99500.63;;;2.52;67.64
84712;BME280;74937;44.534;18.684;2024-02-16T06:00:04;99506.84;;;2.48;67.84
84712;BME280;74937;44.534;18.684;2024-02-16T06:02:32;99509.34;;;2.51;67.70
84712;BME280;74937;44.534;18.684;2024-02-16T06:04:59;99504.63;;;2.62;67.21
84712;BME280;74937;44.534;18.684;2024-02-16T06:07:24;99508.97;;;2.62;67.68
84712;BME280;74937;44.534;18.684;2024-02-16T06:09:50;99510.28;;;2.73;67.37
84712;BME280;74937;44.534;18.684;2024-02-16T06:12:17;99519.03;;;2.96;66.02
84712;BME280;74937;44.534;18.684;2024-02-16T06:14:43;99512.56;;;3.30;65.43
84712;BME280;74937;44.534;18.684;2024-02-16T06:17:08;99521.47;;;3.69;63.92
84712;BME280;74937;44.534;18.684;2024-02-16T06:19:35;99521.03;;;4.24;61.90
84712;BME280;74937;44.534;18.684;2024-02-16T06:22:00;99526.94;;;4.70;59.96
84712;BME280;74937;44.534;18.684;2024-02-16T06:24:26;99521.31;;;5.18;58.47
84712;BME280;74937;44.534;18.684;2024-02-16T06:26:53;99520.03;;;5.64;56.89
84712;BME280;74937;44.534;18.684;2024-02-16T06:29:20;99528.13;;;6.15;55.31
84712;BME280;74937;44.534;18.684;2024-02-16T06:31:46;99527.72;;;6.92;52.86
84712;BME280;74937;44.534;18.684;2024-02-16T06:34:13;99526.22;;;7.52;50.80
84712;BME280;74937;44.534;18.684;2024-02-16T06:36:39;99529.53;;;8.03;49.59
84712;BME280;74937;44.534;18.684;2024-02-16T06:39:05;99540.94;;;8.64;47.45
84712;BME280;74937;44.534;18.684;2024-02-16T06:41:31;99532.66;;;9.29;46.13
84712;BME280;74937;44.534;18.684;2024-02-16T06:43:56;99538.41;;;9.76;45.19
84712;BME280;74937;44.534;18.684;2024-02-16T06:46:22;99539.44;;;10.15;44.03
84712;BME280;74937;44.534;18.684;2024-02-16T06:48:48;99538.09;;;10.62;43.08
84712;BME280;74937;44.534;18.684;2024-02-16T06:51:14;99542.06;;;11.07;41.94
84712;BME280;74937;44.534;18.684;2024-02-16T06:53:39;99529.84;;;11.68;40.60
84712;BME280;74937;44.534;18.684;2024-02-16T06:56:05;99535.78;;;12.33;39.02
84712;BME280;74937;44.534;18.684;2024-02-16T06:58:31;99531.13;;;12.83;37.82
84712;BME280;74937;44.534;18.684;2024-02-16T07:00:56;99539.00;;;13.18;37.59
84712;BME280;74937;44.534;18.684;2024-02-16T07:03:23;99541.19;;;13.69;36.15
84712;BME280;74937;44.534;18.684;2024-02-16T07:05:49;99534.59;;;14.18;35.16
84712;BME280;74937;44.534;18.684;2024-02-16T07:08:15;99539.84;;;14.29;34.79
84712;BME280;74937;44.534;18.684;2024-02-16T07:10:40;99539.22;;;14.69;34.43
84712;BME280;74937;44.534;18.684;2024-02-16T07:13:06;99531.13;;;14.91;33.72
84712;BME280;74937;44.534;18.684;2024-02-16T07:15:31;99531.00;;;15.13;33.51
84712;BME280;74937;44.534;18.684;2024-02-16T07:17:57;99526.72;;;15.32;33.55
84712;BME280;74937;44.534;18.684;2024-02-16T07:20:24;99524.66;;;15.35;33.48
84712;BME280;74937;44.534;18.684;2024-02-16T07:22:50;99522.66;;;15.58;33.35
84712;BME280;74937;44.534;18.684;2024-02-16T07:25:17;99532.28;;;15.90;32.64
84712;BME280;74937;44.534;18.684;2024-02-16T07:27:43;99526.19;;;16.28;32.24
84712;BME280;74937;44.534;18.684;2024-02-16T07:30:09;99528.16;;;16.65;31.29
84712;BME280;74937;44.534;18.684;2024-02-16T07:32:37;99531.66;;;16.65;31.42
84712;BME280;74937;44.534;18.684;2024-02-16T07:35:03;99521.44;;;16.51;31.53
84712;BME280;74937;44.534;18.684;2024-02-16T07:37:29;99528.16;;;16.74;31.36
84712;BME280;74937;44.534;18.684;2024-02-16T07:39:55;99526.19;;;16.96;30.58
84712;BME280;74937;44.534;18.684;2024-02-16T07:42:21;99524.09;;;16.90;31.27
84712;BME280;74937;44.534;18.684;2024-02-16T07:44:46;99528.44;;;16.91;31.86
84712;BME280;74937;44.534;18.684;2024-02-16T07:47:12;99530.97;;;16.73;32.27
84712;BME280;74937;44.534;18.684;2024-02-16T07:49:38;99518.41;;;15.77;33.21
84712;BME280;74937;44.534;18.684;2024-02-16T07:52:05;99521.63;;;14.68;35.59
84712;BME280;74937;44.534;18.684;2024-02-16T07:54:31;99529.59;;;13.81;37.34
84712;BME280;74937;44.534;18.684;2024-02-16T07:56:56;99526.16;;;13.36;38.86
84712;BME280;74937;44.534;18.684;2024-02-16T07:59:25;99521.41;;;13.17;39.03
84712;BME280;74937;44.534;18.684;2024-02-16T08:01:51;99526.97;;;13.14;40.75
84712;BME280;74937;44.534;18.684;2024-02-16T08:04:16;99516.84;;;13.08;40.28
84712;BME280;74937;44.534;18.684;2024-02-16T08:06:42;99517.13;;;13.27;40.47
84712;BME280;74937;44.534;18.684;2024-02-16T08:09:08;99518.13;;;13.37;40.00
84712;BME280;74937;44.534;18.684;2024-02-16T08:11:34;99521.47;;;13.39;39.91
84712;BME280;74937;44.534;18.684;2024-02-16T08:13:59;99524.34;;;13.47;40.34
84712;BME280;74937;44.534;18.684;2024-02-16T08:16:29;99512.81;;;13.37;39.91
84712;BME280;74937;44.534;18.684;2024-02-16T08:18:54;99518.34;;;13.45;40.29
84712;BME280;74937;44.534;18.684;2024-02-16T08:21:20;99524.84;;;13.64;39.80
84712;BME280;74937;44.534;18.684;2024-02-16T08:23:46;99519.50;;;13.75;40.50
84712;BME280;74937;44.534;18.684;2024-02-16T08:26:12;99508.66;;;13.89;40.16
84712;BME280;74937;44.534;18.684;2024-02-16T08:28:39;99511.88;;;13.93;40.55
84712;BME280;74937;44.534;18.684;2024-02-16T08:31:06;99505.72;;;14.03;40.14
84712;BME280;74937;44.534;18.684;2024-02-16T08:33:32;99507.88;;;14.09;40.02
84712;BME280;74937;44.534;18.684;2024-02-16T08:35:58;99506.41;;;14.17;39.92
84712;BME280;74937;44.534;18.684;2024-02-16T08:38:24;99505.13;;;14.32;39.70
84712;BME280;74937;44.534;18.684;2024-02-16T08:40:49;99504.44;;;14.62;39.46
84712;BME280;74937;44.534;18.684;2024-02-16T08:43:17;99505.63;;;14.79;39.03
84712;BME280;74937;44.534;18.684;2024-02-16T08:45:44;99503.19;;;14.87;39.00
84712;BME280;74937;44.534;18.684;2024-02-16T08:48:10;99508.94;;;14.92;38.59
84712;BME280;74937;44.534;18.684;2024-02-16T08:50:35;99499.41;;;15.10;38.44
84712;BME280;74937;44.534;18.684;2024-02-16T08:53:01;99499.34;;;15.31;38.10
84712;BME280;74937;44.534;18.684;2024-02-16T08:55:27;99501.06;;;15.42;37.72
84712;BME280;74937;44.534;18.684;2024-02-16T08:57:52;99497.41;;;15.64;37.42
84712;BME280;74937;44.534;18.684;2024-02-16T09:00:18;99496.59;;;15.83;37.16
84712;BME280;74937;44.534;18.684;2024-02-16T09:02:44;99496.38;;;16.15;36.89
84712;BME280;74937;44.534;18.684;2024-02-16T09:05:11;99498.75;;;16.47;36.49
84712;BME280;74937;44.534;18.684;2024-02-16T09:07:37;99490.91;;;16.55;36.11
84712;BME280;74937;44.534;18.684;2024-02-16T09:10:04;99490.91;;;16.65;35.88
84712;BME280;74937;44.534;18.684;2024-02-16T09:12:29;99488.25;;;16.74;35.91
84712;BME280;74937;44.534;18.684;2024-02-16T09:14:55;99489.78;;;16.77;35.76
84712;BME280;74937;44.534;18.684;2024-02-16T09:17:21;99492.03;;;16.72;35.97
84712;BME280;74937;44.534;18.684;2024-02-16T09:19:46;99491.44;;;16.88;35.99
84712;BME280;74937;44.534;18.684;2024-02-16T09:22:12;99488.84;;;17.15;34.96
84712;BME280;74937;44.534;18.684;2024-02-16T09:24:38;99494.22;;;17.33;34.64
84712;BME280;74937;44.534;18.684;2024-02-16T09:27:03;99493.66;;;17.39;34.75
84712;BME280;74937;44.534;18.684;2024-02-16T09:29:30;99490.13;;;17.48;34.92
84712;BME280;74937;44.534;18.684;2024-02-16T09:31:56;99486.16;;;17.52;34.92
84712;BME280;74937;44.534;18.684;2024-02-16T09:34:21;99494.97;;;17.53;34.78
84712;BME280;74937;44.534;18.684;2024-02-16T09:36:47;99491.78;;;17.49;34.98
84712;BME280;74937;44.534;18.684;2024-02-16T09:39:13;99492.56;;;17.59;34.57
84712;BME280;74937;44.534;18.684;2024-02-16T09:41:41;99485.66;;;17.67;34.86
84712;BME280;74937;44.534;18.684;2024-02-16T09:44:07;99489.66;;;17.53;35.15
84712;BME280;74937;44.534;18.684;2024-02-16T09:46:33;99484.28;;;17.35;35.19
84712;BME280;74937;44.534;18.684;2024-02-16T09:49:03;99481.47;;;17.36;35.59
84712;BME280;74937;44.534;18.684;2024-02-16T09:51:30;99487.38;;;17.30;35.31
84712;BME280;74937;44.534;18.684;2024-02-16T09:53:56;99488.06;;;17.32;35.61
84712;BME280;74937;44.534;18.684;2024-02-16T09:56:22;99486.56;;;17.20;35.67
84712;BME280;74937;44.534;18.684;2024-02-16T09:58:53;99481.25;;;17.20;35.82
84712;BME280;74937;44.534;18.684;2024-02-16T10:01:21;99482.59;;;17.34;35.60
84712;BME280;74937;44.534;18.684;2024-02-16T10:03:47;99477.47;;;17.50;35.83
84712;BME280;74937;44.534;18.684;2024-02-16T10:06:14;99472.94;;;17.60;35.41
84712;BME280;74937;44.534;18.684;2024-02-16T10:08:56;99461.66;;;17.67;35.04
84712;BME280;74937;44.534;18.684;2024-02-16T10:11:27;99451.97;;;17.75;35.68
84712;BME280;74937;44.534;18.684;2024-02-16T10:13:57;99455.28;;;17.87;34.76
84712;BME280;74937;44.534;18.684;2024-02-16T10:16:24;99448.47;;;17.93;34.63
84712;BME280;74937;44.534;18.684;2024-02-16T10:18:49;99443.69;;;17.96;35.09
84712;BME280;74937;44.534;18.684;2024-02-16T10:21:27;99442.41;;;18.00;34.53
84712;BME280;74937;44.534;18.684;2024-02-16T10:24:12;99440.47;;;17.93;35.03
84712;BME280;74937;44.534;18.684;2024-02-16T10:26:39;99430.44;;;18.04;34.63
84712;BME280;74937;44.534;18.684;2024-02-16T10:29:08;99438.44;;;18.22;34.56
84712;BME280;74937;44.534;18.684;2024-02-16T10:31:34;99429.09;;;18.44;34.68
84712;BME280;74937;44.534;18.684;2024-02-16T10:34:00;99430.50;;;18.56;34.20
84712;BME280;74937;44.534;18.684;2024-02-16T10:36:36;99430.13;;;18.69;34.10
84712;BME280;74937;44.534;18.684;2024-02-16T10:39:04;99420.91;;;18.89;34.21
84712;BME280;74937;44.534;18.684;2024-02-16T10:41:33;99417.06;;;19.18;33.42
84712;BME280;74937;44.534;18.684;2024-02-16T10:44:01;99414.34;;;19.52;33.04
84712;BME280;74937;44.534;18.684;2024-02-16T10:46:27;99412.91;;;19.74;32.53
84712;BME280;74937;44.534;18.684;2024-02-16T10:48:52;99407.94;;;19.87;32.18
84712;BME280;74937;44.534;18.684;2024-02-16T10:51:48;99410.94;;;19.92;31.73
84712;BME280;74937;44.534;18.684;2024-02-16T10:54:18;99404.91;;;19.82;32.25
84712;BME280;74937;44.534;18.684;2024-02-16T10:56:45;99403.59;;;19.86;32.48
84712;BME280;74937;44.534;18.684;2024-02-16T10:59:10;99400.06;;;19.94;31.58
84712;BME280;74937;44.534;18.684;2024-02-16T11:01:44;99397.56;;;20.00;31.88
84712;BME280;74937;44.534;18.684;2024-02-16T11:04:17;99390.56;;;19.99;31.95
84712;BME280;74937;44.534;18.684;2024-02-16T11:06:54;99387.88;;;19.99;31.60
84712;BME280;74937;44.534;18.684;2024-02-16T11:09:29;99378.53;;;19.95;31.69
84712;BME280;74937;44.534;18.684;2024-02-16T11:11:59;99380.53;;;19.93;32.30
84712;BME280;74937;44.534;18.684;2024-02-16T11:14:56;99373.50;;;19.92;31.75
84712;BME280;74937;44.534;18.684;2024-02-16T11:17:23;99375.16;;;19.93;30.88
84712;BME280;74937;44.534;18.684;2024-02-16T11:19:49;99364.97;;;19.81;31.18
84712;BME280;74937;44.534;18.684;2024-02-16T11:22:18;99357.69;;;19.48;31.16
84712;BME280;74937;44.534;18.684;2024-02-16T11:24:48;99346.63;;;19.27;32.20
84712;BME280;74937;44.534;18.684;2024-02-16T11:27:15;99347.44;;;19.28;31.75
84712;BME280;74937;44.534;18.684;2024-02-16T11:29:44;99355.31;;;19.29;32.71
84712;BME280;74937;44.534;18.684;2024-02-16T11:32:10;99345.63;;;19.36;32.15
84712;BME280;74937;44.534;18.684;2024-02-16T11:34:35;99346.81;;;19.34;32.02
84712;BME280;74937;44.534;18.684;2024-02-16T11:37:04;99345.25;;;19.23;32.15
84712;BME280;74937;44.534;18.684;2024-02-16T11:39:32;99341.44;;;19.17;32.29
84712;BME280;74937;44.534;18.684;2024-02-16T11:42:05;99341.44;;;19.17;31.19
84712;BME280;74937;44.534;18.684;2024-02-16T11:44:34;99335.03;;;19.10;31.20
84712;BME280;74937;44.534;18.684;2024-02-16T11:47:02;99335.53;;;18.97;31.71
84712;BME280;74937;44.534;18.684;2024-02-16T11:49:29;99332.28;;;18.86;32.20
84712;BME280;74937;44.534;18.684;2024-02-16T11:51:56;99335.78;;;18.78;31.41
84712;BME280;74937;44.534;18.684;2024-02-16T11:54:22;99330.44;;;18.78;31.37
84712;BME280;74937;44.534;18.684;2024-02-16T11:56:48;99332.41;;;18.76;30.42
84712;BME280;74937;44.534;18.684;2024-02-16T11:59:19;99324.78;;;18.63;30.09
84712;BME280;74937;44.534;18.684;2024-02-16T12:01:57;99328.78;;;18.59;29.39
84712;BME280;74937;44.534;18.684;2024-02-16T12:04:25;99327.59;;;18.54;28.67
84712;BME280;74937;44.534;18.684;2024-02-16T12:06:53;99327.19;;;18.40;28.70
84712;BME280;74937;44.534;18.684;2024-02-16T12:09:18;99327.81;;;18.34;29.47
84712;BME280;74937;44.534;18.684;2024-02-16T12:11:47;99328.44;;;18.28;29.42
84712;BME280;74937;44.534;18.684;2024-02-16T12:14:13;99319.06;;;18.24;29.12
84712;BME280;74937;44.534;18.684;2024-02-16T12:16:39;99315.06;;;18.20;29.84
84712;BME280;74937;44.534;18.684;2024-02-16T12:19:05;99306.34;;;18.18;30.60
84712;BME280;74937;44.534;18.684;2024-02-16T12:21:30;99308.88;;;18.20;30.51
84712;BME280;74937;44.534;18.684;2024-02-16T12:23:56;99312.88;;;18.24;31.70
84712;BME280;74937;44.534;18.684;2024-02-16T12:26:22;99311.91;;;18.25;30.55
84712;BME280;74937;44.534;18.684;2024-02-16T12:28:47;99310.84;;;18.17;29.87
84712;BME280;74937;44.534;18.684;2024-02-16T12:31:20;99311.34;;;18.13;30.44
84712;BME280;74937;44.534;18.684;2024-02-16T12:33:46;99305.63;;;18.08;29.91
84712;BME280;74937;44.534;18.684;2024-02-16T12:36:12;99311.53;;;17.94;29.97
84712;BME280;74937;44.534;18.684;2024-02-16T12:38:38;99304.97;;;17.88;30.50
84712;BME280;74937;44.534;18.684;2024-02-16T12:41:03;99303.59;;;17.84;31.10
84712;BME280;74937;44.534;18.684;2024-02-16T12:43:29;99307.28;;;17.83;30.60
84712;BME280;74937;44.534;18.684;2024-02-16T12:45:55;99291.28;;;17.83;30.37
84712;BME280;74937;44.534;18.684;2024-02-16T12:48:21;99295.16;;;17.88;28.69
84712;BME280;74937;44.534;18.684;2024-02-16T12:50:47;99291.44;;;17.81;29.34
84712;BME280;74937;44.534;18.684;2024-02-16T12:53:14;99288.06;;;17.79;29.75